Time;durP1;ratioP1;P1;durP2;ratioP2;P2;SDS_P1;SDS_P2;PMS_P1;PMS_P2;Temp;Humidity;BMP_temperature;BMP_pressure;BME280_temperature;BME280_humidity;BME280_pressure;Samples;Min_cycle;Max_cycle;Signal;HPM_P1;HPM_P2
2020/12/28 00:02:24;;;;;;;9.15;4.05;;;;;;;2.05;61.34;98109.41;5016104;28;20891;-62
2020/12/28 00:04:51;;;;;;;7.65;4.10;;;;;;;2.02;62.04;98093.06;5016847;28;20578;-60
2020/12/28 00:07:18;;;;;;;8.60;4.07;;;;;;;2.00;62.08;98089.75;5019287;28;20054;-59
2020/12/28 00:09:44;;;;;;;7.90;4.50;;;;;;;2.03;62.25;98086.16;5016460;28;20138;-61
2020/12/28 00:12:17;;;;;;;7.32;3.75;;;;;;;2.08;62.18;98086.69;5017403;28;20049;-59
2020/12/28 00:14:45;;;;;;;8.00;4.25;;;;;;;2.03;62.58;98102.56;5016659;28;20098;-61
2020/12/28 00:17:12;;;;;;;7.78;4.05;;;;;;;2.05;62.79;98091.22;5000369;28;20125;-59
2020/12/28 00:19:39;;;;;;;7.20;4.05;;;;;;;2.06;62.84;98088.53;5018770;28;20526;-61
2020/12/28 00:22:06;;;;;;;9.55;4.28;;;;;;;2.01;63.22;98088.00;5018221;28;20502;-59
2020/12/28 00:24:33;;;;;;;6.03;3.78;;;;;;;1.96;63.56;98077.09;5016157;28;20060;-65
2020/12/28 00:27:00;;;;;;;8.80;5.05;;;;;;;1.98;63.79;98076.06;5016502;28;20060;-57
2020/12/28 00:29:26;;;;;;;8.65;5.03;;;;;;;1.95;63.83;98084.03;5017378;28;20176;-60
2020/12/28 00:31:53;;;;;;;7.90;3.80;;;;;;;1.96;64.06;98083.09;5016884;28;20092;-58
2020/12/28 00:34:19;;;;;;;7.10;4.18;;;;;;;1.89;64.50;98076.66;5015361;28;20053;-60
2020/12/28 00:36:46;;;;;;;7.55;4.38;;;;;;;1.84;65.10;98070.91;5020754;28;20607;-60
2020/12/28 00:39:13;;;;;;;11.30;4.60;;;;;;;1.90;64.93;98067.94;5004472;28;20061;-59
2020/12/28 00:41:39;;;;;;;8.15;4.60;;;;;;;1.84;65.32;98070.09;5020515;28;20557;-60
2020/12/28 00:44:06;;;;;;;9.50;5.03;;;;;;;1.85;65.68;98066.59;5022224;28;20140;-58
2020/12/28 00:46:33;;;;;;;8.07;4.72;;;;;;;1.87;65.50;98062.94;5020097;28;20393;-59
2020/12/28 00:48:59;;;;;;;9.48;4.32;;;;;;;1.86;65.81;98060.47;5017427;28;20550;-63
2020/12/28 00:51:26;;;;;;;8.15;4.47;;;;;;;1.82;65.85;98054.63;5016368;28;20442;-58
2020/12/28 00:53:53;;;;;;;7.55;4.70;;;;;;;1.77;66.51;98054.09;5003306;28;20053;-61
2020/12/28 00:56:19;;;;;;;6.85;4.05;;;;;;;1.84;66.20;98044.97;5012559;28;20056;-61
2020/12/28 00:58:46;;;;;;;8.77;4.63;;;;;;;1.80;66.84;98047.88;5012655;28;20514;-61
2020/12/28 01:01:13;;;;;;;9.90;4.45;;;;;;;1.81;67.29;98047.78;5014977;28;20058;-60
2020/12/28 01:03:40;;;;;;;7.85;4.85;;;;;;;1.80;67.63;98042.69;5014789;28;20061;-59
2020/12/28 01:06:06;;;;;;;10.85;4.10;;;;;;;1.78;68.02;98037.59;5013422;28;20055;-61
2020/12/28 01:08:33;;;;;;;7.97;4.30;;;;;;;1.81;67.86;98031.41;5013869;28;20541;-60
2020/12/28 01:11:00;;;;;;;10.02;4.80;;;;;;;1.77;68.36;98033.34;5014717;28;21080;-60
2020/12/28 01:13:26;;;;;;;7.93;4.70;;;;;;;1.82;68.77;98039.06;5013987;28;20475;-61
2020/12/28 01:15:53;;;;;;;9.13;5.10;;;;;;;1.80;68.68;98027.94;5014386;28;20526;-61
2020/12/28 01:18:20;;;;;;;7.35;4.10;;;;;;;1.77;69.13;98030.75;4994273;28;20061;-59
2020/12/28 01:20:47;;;;;;;7.72;4.40;;;;;;;1.76;69.45;98018.72;5006067;28;20077;-59
2020/12/28 01:23:13;;;;;;;8.57;4.70;;;;;;;1.72;69.54;98009.47;5021859;28;20056;-62
2020/12/28 01:25:40;;;;;;;9.45;5.38;;;;;;;1.74;69.98;98003.25;5007177;28;20045;-58
2020/12/28 01:28:07;;;;;;;9.18;5.00;;;;;;;1.73;70.17;97990.38;5018572;28;20138;-58
2020/12/28 01:30:34;;;;;;;11.07;5.32;;;;;;;1.72;70.73;97978.34;5005446;28;20049;-60
2020/12/28 01:33:01;;;;;;;13.32;4.93;;;;;;;1.65;70.93;97980.50;5016572;28;20065;-61
2020/12/28 01:35:28;;;;;;;9.73;5.03;;;;;;;1.71;71.39;97984.44;5013766;28;20065;-61
2020/12/28 01:37:55;;;;;;;12.73;4.80;;;;;;;1.69;71.56;97984.56;5016343;28;20053;-58
2020/12/28 01:40:22;;;;;;;9.05;4.63;;;;;;;1.71;71.70;97987.03;5016300;28;20053;-63
2020/12/28 01:42:51;;;;;;;7.38;4.35;;;;;;;1.66;71.99;97995.13;5003618;28;20442;-60
2020/12/28 01:45:18;;;;;;;7.75;4.88;;;;;;;1.66;72.27;97994.28;5003224;28;20076;-62
2020/12/28 01:47:44;;;;;;;7.85;5.13;;;;;;;1.68;72.22;97995.03;5019238;28;20080;-61
2020/12/28 01:50:11;;;;;;;13.27;4.70;;;;;;;1.71;72.57;98003.47;5016588;28;21651;-60
2020/12/28 01:52:38;;;;;;;10.43;5.32;;;;;;;1.71;72.74;97992.22;5017422;28;20686;-60
2020/12/28 01:55:05;;;;;;;9.27;5.50;;;;;;;1.73;73.23;98003.34;4999255;28;20049;-62
2020/12/28 01:57:31;;;;;;;11.07;5.20;;;;;;;1.75;73.20;97993.69;5016775;28;20058;-58
2020/12/28 01:59:58;;;;;;;10.25;5.20;;;;;;;1.74;73.23;97999.81;5015771;28;20057;-59
2020/12/28 02:02:26;;;;;;;9.60;5.35;;;;;;;1.73;73.43;97995.56;5011704;28;20341;-57
2020/12/28 02:04:52;;;;;;;9.82;5.85;;;;;;;1.68;73.87;97985.50;5002895;28;20077;-59
2020/12/28 02:07:20;;;;;;;9.10;5.55;;;;;;;1.73;74.22;97987.78;5016290;28;20533;-59
2020/12/28 02:09:47;;;;;;;9.00;5.25;;;;;;;1.73;74.23;97991.22;5004404;28;20057;-63
2020/12/28 02:12:14;;;;;;;9.85;5.00;;;;;;;1.75;74.45;97988.50;5016228;28;20499;-60
2020/12/28 02:14:41;;;;;;;9.73;5.45;;;;;;;1.73;74.57;97986.03;5016033;28;20037;-59
2020/12/28 02:17:07;;;;;;;9.35;5.40;;;;;;;1.82;74.41;97991.53;5020192;28;20041;-59
2020/12/28 02:19:36;;;;;;;11.73;5.20;;;;;;;1.77;74.43;97992.69;5003260;28;20077;-58
2020/12/28 02:22:03;;;;;;;10.15;5.32;;;;;;;1.78;74.66;98011.66;5021936;28;20530;-61
2020/12/28 02:24:29;;;;;;;12.18;5.28;;;;;;;1.67;75.21;98009.78;5016903;28;20056;-63
2020/12/28 02:26:57;;;;;;;8.70;5.38;;;;;;;1.76;74.80;98014.38;5012287;28;20038;-61
2020/12/28 02:29:23;;;;;;;8.73;5.03;;;;;;;1.74;75.16;98015.38;5014538;28;22003;-59
2020/12/28 02:31:50;;;;;;;7.97;4.45;;;;;;;1.80;75.10;98008.97;5015355;28;20057;-59
2020/12/28 02:34:18;;;;;;;11.38;5.75;;;;;;;1.74;75.12;98007.59;5014230;28;20714;-60
2020/12/28 02:36:44;;;;;;;9.65;5.30;;;;;;;1.75;75.09;98014.44;5014873;28;20065;-59
2020/12/28 02:39:11;;;;;;;8.63;5.00;;;;;;;1.73;75.64;98006.78;5001219;28;20060;-60
2020/12/28 02:41:38;;;;;;;11.10;5.00;;;;;;;1.71;75.41;98007.78;5016294;28;20141;-59
2020/12/28 02:44:04;;;;;;;8.93;5.68;;;;;;;1.69;75.89;98002.72;5015040;28;20057;-59
2020/12/28 02:46:31;;;;;;;9.98;5.88;;;;;;;1.75;75.64;97989.34;5015098;28;20430;-59
2020/12/28 02:48:58;;;;;;;8.98;5.30;;;;;;;1.71;75.80;97989.63;5015177;28;20052;-60
2020/12/28 02:51:25;;;;;;;8.48;5.10;;;;;;;1.69;76.03;97987.16;5013381;28;20061;-61
2020/12/28 02:53:53;;;;;;;8.75;5.78;;;;;;;1.75;75.97;97980.72;5013770;28;20494;-60
2020/12/28 02:56:19;;;;;;;8.45;4.68;;;;;;;1.70;76.15;97980.19;5014073;28;20049;-61
2020/12/28 02:58:46;;;;;;;8.70;5.30;;;;;;;1.72;76.04;97975.75;5014118;28;20080;-60
2020/12/28 03:01:13;;;;;;;10.93;5.80;;;;;;;1.66;76.25;97982.16;5013199;28;20056;-59
2020/12/28 03:03:40;;;;;;;12.25;5.93;;;;;;;1.66;76.59;97979.56;5015197;28;20092;-59
2020/12/28 03:06:06;;;;;;;14.48;6.15;;;;;;;1.67;76.84;97972.63;5017040;28;20057;-62
2020/12/28 03:08:33;;;;;;;8.38;5.72;;;;;;;1.73;76.56;97983.44;5012781;28;20064;-60
2020/12/28 03:11:00;;;;;;;9.77;5.22;;;;;;;1.69;76.93;97981.13;5015771;28;20157;-59
2020/12/28 03:13:26;;;;;;;10.00;5.60;;;;;;;1.66;77.16;97974.38;5013030;28;20057;-57
2020/12/28 03:15:53;;;;;;;10.15;5.55;;;;;;;1.72;77.02;97981.78;5013440;28;20049;-61
2020/12/28 03:18:20;;;;;;;10.82;5.15;;;;;;;1.76;76.79;97977.22;4995102;28;20138;-61
2020/12/28 03:20:46;;;;;;;10.38;5.68;;;;;;;1.85;76.49;97976.63;5003186;28;20061;-61
2020/12/28 03:23:13;;;;;;;12.55;5.63;;;;;;;1.76;76.85;97974.63;4998585;28;20068;-60
2020/12/28 03:25:40;;;;;;;12.18;5.72;;;;;;;1.82;76.77;97970.78;5005217;28;20179;-58
2020/12/28 03:28:07;;;;;;;11.25;5.57;;;;;;;1.80;76.78;97965.69;5017353;28;20052;-60
2020/12/28 03:30:33;;;;;;;12.18;6.35;;;;;;;1.92;76.70;97979.63;4997888;28;20050;-61
2020/12/28 03:33:00;;;;;;;10.13;5.78;;;;;;;1.85;76.71;97980.97;5013069;28;20050;-62
2020/12/28 03:35:27;;;;;;;9.30;5.15;;;;;;;1.89;76.61;97983.28;5016448;28;20084;-61
2020/12/28 03:37:53;;;;;;;8.43;5.38;;;;;;;1.86;76.53;97983.47;5016541;28;20097;-60
2020/12/28 03:40:20;;;;;;;7.32;4.82;;;;;;;1.91;76.64;97978.81;5014830;28;20049;-59
2020/12/28 03:42:47;;;;;;;9.57;5.57;;;;;;;1.91;76.79;97975.38;5015585;28;20061;-61
2020/12/28 03:45:13;;;;;;;8.50;5.05;;;;;;;1.89;76.70;97969.44;5013275;28;20054;-60
2020/12/28 03:47:40;;;;;;;9.70;5.35;;;;;;;1.87;76.98;97964.38;5015977;28;20137;-61
2020/12/28 03:50:07;;;;;;;9.07;4.80;;;;;;;1.88;77.25;97962.59;5028519;23;20061;-54
2020/12/28 03:52:39;;;;;;;10.25;4.93;;;;;;;1.82;76.98;97957.81;5003802;28;20077;-57
2020/12/28 03:55:06;;;;;;;8.32;5.05;;;;;;;1.86;77.56;97956.69;4999302;28;20056;-53
2020/12/28 03:57:33;;;;;;;7.70;5.05;;;;;;;1.84;77.45;97927.41;4986095;28;20054;-53
2020/12/28 04:00:00;;;;;;;9.25;5.50;;;;;;;1.63;78.33;97914.94;5007309;28;20064;-54
2020/12/28 04:02:27;;;;;;;8.93;4.93;;;;;;;1.65;78.21;97918.25;5010183;28;20046;-54
2020/12/28 04:04:53;;;;;;;10.60;5.47;;;;;;;1.56;79.03;97916.28;5011767;28;20045;-58
2020/12/28 04:07:20;;;;;;;9.68;5.40;;;;;;;1.59;78.95;97917.84;5010635;28;20057;-56
2020/12/28 04:09:47;;;;;;;8.73;5.47;;;;;;;1.51;79.12;97916.56;4990984;28;20050;-53
2020/12/28 04:12:13;;;;;;;9.90;5.05;;;;;;;1.54;79.28;97910.38;5012233;28;20053;-51
2020/12/28 04:14:40;;;;;;;7.15;4.53;;;;;;;1.54;79.33;97902.59;5009541;28;20381;-53
2020/12/28 04:17:07;;;;;;;9.73;4.93;;;;;;;1.56;79.42;97892.09;5010838;28;20180;-54
2020/12/28 04:19:34;;;;;;;10.13;4.40;;;;;;;1.61;79.20;97892.63;5009088;28;20064;-56
2020/12/28 04:22:00;;;;;;;11.25;6.20;;;;;;;1.56;79.32;97884.34;5013125;28;20057;-56
2020/12/28 04:24:27;;;;;;;8.90;4.72;;;;;;;1.57;79.43;97892.00;5012965;28;20060;-52
2020/12/28 04:26:54;;;;;;;9.52;5.45;;;;;;;1.60;79.18;97889.22;5009675;28;20053;-54
2020/12/28 04:29:21;;;;;;;8.10;4.97;;;;;;;1.64;79.26;97888.09;4992245;28;20050;-55
2020/12/28 04:31:47;;;;;;;8.98;4.82;;;;;;;1.63;79.41;97890.78;5005221;28;20157;-55
2020/12/28 04:34:14;;;;;;;7.68;4.80;;;;;;;1.59;79.43;97891.91;5009453;28;20427;-54
2020/12/28 04:36:41;;;;;;;10.07;5.15;;;;;;;1.64;79.38;97889.84;5010499;28;20052;-54
2020/12/28 04:39:07;;;;;;;8.35;5.30;;;;;;;1.67;79.33;97889.66;5010302;28;20623;-55
2020/12/28 04:41:34;;;;;;;8.02;5.07;;;;;;;1.65;79.78;97881.13;5010801;28;20057;-58
2020/12/28 04:44:01;;;;;;;9.65;5.15;;;;;;;1.66;79.74;97875.00;5010567;28;20110;-54
2020/12/28 04:46:29;;;;;;;8.65;5.32;;;;;;;1.60;79.78;97871.06;5012267;28;22269;-56
2020/12/28 04:48:57;;;;;;;7.53;4.78;;;;;;;1.67;79.93;97871.50;5011036;28;20061;-58
2020/12/28 04:51:24;;;;;;;7.75;4.90;;;;;;;1.68;79.35;97871.38;5011990;28;20046;-53
2020/12/28 04:53:51;;;;;;;7.75;4.90;;;;;;;1.68;79.36;97865.38;5008096;28;20137;-56
2020/12/28 04:56:21;;;;;;;7.47;4.65;;;;;;;1.66;79.65;97859.44;5012414;28;20037;-56
2020/12/28 04:58:48;;;;;;;7.32;4.75;;;;;;;1.71;79.77;97858.22;5009910;28;20068;-54
2020/12/28 05:01:16;;;;;;;7.78;4.97;;;;;;;1.71;79.90;97862.56;5010820;28;20085;-51
2020/12/28 05:03:43;;;;;;;8.88;4.90;;;;;;;1.71;79.98;97873.78;4990380;28;20054;-55
2020/12/28 05:06:10;;;;;;;9.13;5.03;;;;;;;1.73;79.93;97871.06;5011241;28;20050;-54
2020/12/28 05:08:42;;;;;;;9.25;4.90;;;;;;;1.74;80.02;97864.94;5010123;28;20530;-54
2020/12/28 05:11:11;;;;;;;6.95;4.90;;;;;;;1.71;79.97;97865.16;4994347;28;20064;-52
2020/12/28 05:13:38;;;;;;;9.60;5.13;;;;;;;1.70;80.39;97873.88;5009178;28;20571;-53
2020/12/28 05:16:05;;;;;;;7.47;4.55;;;;;;;1.68;80.46;97873.16;5012970;28;20050;-54
2020/12/28 05:18:33;;;;;;;9.00;5.20;;;;;;;1.71;80.33;97870.34;5009472;28;20060;-53
2020/12/28 05:20:59;;;;;;;8.40;5.00;;;;;;;1.76;80.30;97866.53;5010232;28;20176;-57
2020/12/28 05:23:26;;;;;;;7.25;5.05;;;;;;;1.75;80.41;97861.41;5009278;28;20053;-55
2020/12/28 05:25:53;;;;;;;8.32;5.03;;;;;;;1.73;80.27;97868.50;5012050;28;20054;-56
2020/12/28 05:28:27;;;;;;;8.02;4.90;;;;;;;1.71;80.17;97876.38;5006043;28;21940;-53
2020/12/28 05:30:59;;;;;;;7.60;4.68;;;;;;;1.63;80.73;97872.63;4986298;28;20049;-53
2020/12/28 05:33:35;;;;;;;9.55;5.90;;;;;;;1.64;80.73;97862.16;5003672;28;20089;-56
2020/12/28 05:36:02;;;;;;;9.70;6.15;;;;;;;1.63;80.64;97855.31;5002102;28;20065;-55
2020/12/28 05:38:30;;;;;;;8.10;5.10;;;;;;;1.63;80.78;97867.44;4973111;28;20388;-53
2020/12/28 05:41:02;;;;;;;10.07;5.82;;;;;;;1.58;81.02;97859.97;5001619;28;20058;-53
2020/12/28 05:43:29;;;;;;;9.70;6.28;;;;;;;1.55;80.99;97854.97;4995988;28;20075;-55
2020/12/28 05:45:56;;;;;;;8.48;5.70;;;;;;;1.50;81.11;97857.06;4977932;28;20057;-53
2020/12/28 05:48:23;;;;;;;8.80;5.32;;;;;;;1.52;81.38;97852.59;5004363;28;20059;-53
2020/12/28 05:50:57;;;;;;;9.20;5.95;;;;;;;1.45;80.84;97853.94;5009724;28;20164;-51
2020/12/28 05:53:25;;;;;;;11.20;5.70;;;;;;;1.52;80.97;97847.41;5004550;28;20065;-55
2020/12/28 05:55:53;;;;;;;8.48;5.45;;;;;;;1.52;81.29;97845.63;5009419;28;20061;-57
2020/12/28 05:58:21;;;;;;;9.32;5.35;;;;;;;1.47;81.57;97832.16;4989738;28;20712;-53
2020/12/28 06:00:49;;;;;;;9.45;5.72;;;;;;;1.41;81.93;97824.78;5012781;28;20052;-51
2020/12/28 06:03:25;;;;;;;10.57;5.60;;;;;;;1.39;81.50;97829.22;5007206;28;21388;-53
2020/12/28 06:05:53;;;;;;;10.38;6.60;;;;;;;1.39;81.70;97829.22;5011169;28;20148;-51
2020/12/28 06:08:20;;;;;;;11.85;5.85;;;;;;;1.37;81.85;97833.69;5008275;28;20429;-54
2020/12/28 06:10:46;;;;;;;10.82;5.88;;;;;;;1.31;81.97;97838.47;5008382;28;20534;-55
2020/12/28 06:13:23;;;;;;;14.85;6.65;;;;;;;1.26;81.97;97833.56;5006697;28;20053;-55
2020/12/28 06:16:02;;;;;;;10.40;5.75;;;;;;;1.24;82.62;97832.84;5008965;28;20076;-56
2020/12/28 06:18:30;;;;;;;9.70;6.15;;;;;;;1.19;82.73;97830.56;5007146;28;20068;-52
2020/12/28 06:20:56;;;;;;;11.88;5.95;;;;;;;1.19;82.85;97840.91;5009502;28;20493;-55
2020/12/28 06:23:37;;;;;;;9.45;6.25;;;;;;;1.33;82.41;97847.78;5007679;28;20057;-56
2020/12/28 06:26:03;;;;;;;13.50;6.88;;;;;;;1.31;82.20;97857.44;5007627;28;20141;-57
2020/12/28 06:28:30;;;;;;;11.27;6.32;;;;;;;1.33;82.14;97857.34;5006418;28;20058;-58
2020/12/28 06:31:07;;;;;;;10.82;6.32;;;;;;;1.37;82.26;97846.66;5009634;28;20046;-57
2020/12/28 06:33:33;;;;;;;12.98;6.82;;;;;;;1.33;82.22;97834.00;5008108;28;20061;-54
2020/12/28 06:36:00;;;;;;;9.02;5.70;;;;;;;1.33;82.76;97849.56;5005101;28;20054;-54
2020/12/28 06:38:27;;;;;;;8.90;5.82;;;;;;;1.32;82.36;97838.38;4999027;28;20058;-55
2020/12/28 06:40:54;;;;;;;14.07;6.30;;;;;;;1.25;83.01;97835.31;5008442;28;20548;-59
2020/12/28 06:43:21;;;;;;;9.82;6.57;;;;;;;1.23;83.40;97841.56;5006659;28;20062;-56
2020/12/28 06:45:50;;;;;;;12.00;6.35;;;;;;;1.24;82.85;97833.69;5005042;28;20058;-55
2020/12/28 06:48:23;;;;;;;9.75;6.38;;;;;;;1.25;82.78;97821.53;5004249;28;20049;-54
2020/12/28 06:50:52;;;;;;;11.40;6.65;;;;;;;1.22;83.26;97820.00;4991255;28;20059;-54
2020/12/28 06:53:20;;;;;;;10.75;6.63;;;;;;;1.25;83.06;97817.19;4999532;28;20081;-55
2020/12/28 06:55:47;;;;;;;12.98;6.60;;;;;;;1.23;83.57;97821.66;5000595;28;20058;-56
2020/12/28 06:58:14;;;;;;;10.70;6.50;;;;;;;1.22;83.42;97814.81;5003382;28;20057;-53
2020/12/28 07:00:41;;;;;;;11.02;6.50;;;;;;;1.20;83.38;97813.25;5007989;28;20108;-53
2020/12/28 07:03:12;;;;;;;11.77;6.95;;;;;;;1.14;83.65;97808.47;4988870;28;20581;-53
2020/12/28 07:05:40;;;;;;;11.02;7.05;;;;;;;1.23;84.17;97808.69;5008510;28;20647;-52
2020/12/28 07:08:07;;;;;;;10.80;7.00;;;;;;;1.16;83.77;97789.28;5005852;28;20142;-56
2020/12/28 07:10:33;;;;;;;11.82;7.30;;;;;;;1.19;83.58;97786.50;5007241;28;20056;-51
2020/12/28 07:13:07;;;;;;;14.15;6.80;;;;;;;1.05;83.96;97778.81;5007052;28;20418;-55
2020/12/28 07:15:34;;;;;;;10.95;6.45;;;;;;;1.10;84.00;97784.53;5007861;28;20082;-54
2020/12/28 07:18:19;;;;;;;10.45;6.18;;;;;;;1.02;84.89;97787.59;5004471;28;20058;-53
2020/12/28 07:20:54;;;;;;;8.68;6.22;;;;;;;1.00;84.83;97791.25;5006726;28;20049;-52
2020/12/28 07:23:29;;;;;;;12.00;7.63;;;;;;;1.02;85.13;97789.38;5004654;28;20054;-55
2020/12/28 07:26:07;;;;;;;11.15;7.07;;;;;;;0.97;85.05;97802.63;5008675;28;20099;-53
2020/12/28 07:28:35;;;;;;;13.10;7.15;;;;;;;1.00;84.89;97799.03;5007097;28;20049;-51
2020/12/28 07:31:04;;;;;;;13.73;7.75;;;;;;;1.11;84.66;97798.31;5008581;28;20084;-52
2020/12/28 07:33:31;;;;;;;12.50;7.05;;;;;;;1.14;84.59;97813.66;5009315;28;20065;-57
2020/12/28 07:36:18;;;;;;;11.45;7.22;;;;;;;1.12;84.76;97805.97;5010515;28;20058;-57
2020/12/28 07:38:46;;;;;;;12.40;8.27;;;;;;;1.15;84.77;97807.53;5008564;28;20052;-54
2020/12/28 07:41:14;;;;;;;13.18;7.68;;;;;;;1.17;84.77;97809.13;5009405;28;20069;-51
2020/12/28 07:43:51;;;;;;;11.10;7.53;;;;;;;1.15;84.66;97810.13;5010159;28;20486;-58
2020/12/28 07:46:24;;;;;;;11.77;7.13;;;;;;;1.18;84.78;97815.94;5011688;28;20054;-56
2020/12/28 07:48:56;;;;;;;9.98;6.30;;;;;;;1.21;84.47;97820.09;4998351;28;20062;-54
2020/12/28 07:51:24;;;;;;;10.88;6.93;;;;;;;1.24;84.43;97825.06;4997899;28;20148;-54
2020/12/28 07:53:56;;;;;;;14.00;7.32;;;;;;;1.16;84.76;97822.16;4990626;28;20061;-56
2020/12/28 07:56:28;;;;;;;11.43;7.30;;;;;;;1.24;84.87;97822.47;4994391;28;20061;-53
2020/12/28 07:59:32;;;;;;;10.90;7.28;;;;;;;1.35;84.79;97819.16;5008679;28;20050;-53
2020/12/28 08:02:02;;;;;;;11.95;8.13;;;;;;;1.31;84.49;97830.69;5011061;28;20138;-55
2020/12/28 08:04:29;;;;;;;14.15;7.75;;;;;;;1.37;84.10;97836.28;5008913;28;20580;-55
2020/12/28 08:06:58;;;;;;;9.48;6.57;;;;;;;1.43;84.11;97837.63;4995133;28;20064;-53
2020/12/28 08:09:25;;;;;;;14.38;6.97;;;;;;;1.47;83.88;97839.94;5008098;28;20498;-56
2020/12/28 08:11:57;;;;;;;10.82;6.53;;;;;;;1.61;83.37;97839.00;5013453;28;20046;-55
2020/12/28 08:14:24;;;;;;;9.95;6.97;;;;;;;1.65;83.20;97842.22;5012629;28;20060;-57
2020/12/28 08:16:51;;;;;;;11.07;6.68;;;;;;;1.70;82.64;97842.75;5011656;28;20180;-56
2020/12/28 08:19:24;;;;;;;9.15;6.32;;;;;;;1.63;82.91;97844.94;5010769;28;20053;-57
2020/12/28 08:21:51;;;;;;;10.30;6.65;;;;;;;1.73;82.61;97837.38;5009541;28;20049;-55
2020/12/28 08:24:19;;;;;;;11.13;6.93;;;;;;;1.76;82.83;97837.16;5008639;28;20548;-55
2020/12/28 08:26:46;;;;;;;10.88;6.45;;;;;;;1.78;82.96;97830.09;4987243;28;20050;-54
2020/12/28 08:29:14;;;;;;;11.93;7.40;;;;;;;1.83;82.68;97830.63;5011397;28;20517;-50
2020/12/28 08:31:41;;;;;;;11.27;6.50;;;;;;;1.86;82.37;97835.59;5012633;28;20066;-53
2020/12/28 08:34:09;;;;;;;12.30;7.20;;;;;;;1.88;82.15;97841.50;5010522;28;20057;-58
2020/12/28 08:36:39;;;;;;;14.07;6.70;;;;;;;1.81;82.73;97842.88;5004829;28;20041;-59
2020/12/28 08:39:20;;;;;;;10.32;6.72;;;;;;;2.00;81.80;97834.66;5008177;28;20057;-59
2020/12/28 08:41:54;;;;;;;11.35;7.20;;;;;;;2.05;81.55;97844.72;4999347;28;20073;-55
2020/12/28 08:44:32;;;;;;;10.18;6.80;;;;;;;2.09;81.20;97831.44;4984918;28;20050;-56
2020/12/28 08:47:03;;;;;;;9.07;6.97;;;;;;;2.14;81.32;97821.56;5001600;28;20078;-53
2020/12/28 08:49:33;;;;;;;9.43;6.20;;;;;;;2.10;81.23;97814.09;4997453;28;20046;-55
2020/12/28 08:52:14;;;;;;;11.77;6.53;;;;;;;2.09;81.41;97810.66;4996297;28;20538;-53
2020/12/28 08:54:41;;;;;;;10.93;6.25;;;;;;;2.15;81.50;97818.03;5003189;28;20151;-54
2020/12/28 08:57:24;;;;;;;9.20;6.28;;;;;;;2.22;81.16;97813.25;5007334;28;20053;-56
2020/12/28 08:59:52;;;;;;;9.25;6.57;;;;;;;2.20;80.95;97809.91;5002612;28;20054;-56
2020/12/28 09:02:20;;;;;;;8.70;6.00;;;;;;;2.32;80.39;97808.22;5000377;28;20117;-60
2020/12/28 09:04:49;;;;;;;9.90;6.93;;;;;;;2.25;80.47;97798.28;5003225;28;20057;-54
2020/12/28 09:07:17;;;;;;;10.32;6.55;;;;;;;2.20;80.72;97799.53;5005088;28;20050;-55
2020/12/28 09:09:45;;;;;;;9.25;6.28;;;;;;;2.28;80.07;97802.44;5005939;28;20050;-58
2020/12/28 09:12:12;;;;;;;9.52;6.38;;;;;;;2.35;80.13;97810.63;4988072;28;20525;-54
2020/12/28 09:14:40;;;;;;;9.85;5.95;;;;;;;2.41;80.13;97808.41;4987538;28;20054;-56
2020/12/28 09:17:15;;;;;;;11.32;6.55;;;;;;;2.51;81.30;97812.00;4985334;28;20084;-56
2020/12/28 09:19:42;;;;;;;11.15;6.43;;;;;;;2.59;79.36;97815.84;4984141;28;20054;-59
2020/12/28 09:22:09;;;;;;;10.63;5.85;;;;;;;2.50;79.39;97812.94;5000921;28;20054;-53
2020/12/28 09:24:35;;;;;;;10.10;6.15;;;;;;;2.50;79.41;97815.53;4988727;28;20052;-58
2020/12/28 09:27:02;;;;;;;16.73;6.40;;;;;;;2.59;79.35;97816.66;4985254;28;20069;-52
2020/12/28 09:29:29;;;;;;;10.82;6.95;;;;;;;2.65;79.27;97812.78;4981255;28;21392;-58
2020/12/28 09:31:55;;;;;;;10.38;6.15;;;;;;;2.85;78.94;97821.78;4984631;28;20076;-57
2020/12/28 09:34:22;;;;;;;9.73;5.95;;;;;;;2.86;78.39;97813.03;4981528;28;20054;-55
2020/12/28 09:37:02;;;;;;;13.45;5.93;;;;;;;2.96;77.97;97820.03;4982998;28;20058;-53
2020/12/28 09:39:29;;;;;;;8.70;5.78;;;;;;;3.05;77.75;97814.16;4987071;28;20766;-57
2020/12/28 09:41:57;;;;;;;9.35;6.15;;;;;;;3.07;77.10;97823.66;4979808;28;20074;-58
2020/12/28 09:44:24;;;;;;;11.63;7.32;;;;;;;3.01;77.19;97822.28;4971922;28;20157;-52
2020/12/28 09:46:53;;;;;;;10.43;6.20;;;;;;;2.94;77.40;97815.91;4947614;28;20065;-52
2020/12/28 09:49:20;;;;;;;14.10;6.63;;;;;;;2.77;78.45;97819.72;4975345;28;20054;-51
2020/12/28 09:51:47;;;;;;;9.02;6.40;;;;;;;2.96;77.96;97814.84;4978740;28;20053;-58
2020/12/28 09:54:15;;;;;;;9.90;5.93;;;;;;;3.05;77.69;97813.34;4975556;28;20070;-56
2020/12/28 09:57:05;;;;;;;11.23;6.43;;;;;;;3.15;77.13;97816.09;4979647;28;20054;-58
2020/12/28 09:59:37;;;;;;;9.35;6.38;;;;;;;3.24;76.30;97810.22;4983524;28;20078;-57
2020/12/28 10:02:04;;;;;;;9.38;5.90;;;;;;;3.27;76.91;97812.59;4985020;28;20058;-60
2020/12/28 10:04:31;;;;;;;8.50;5.35;;;;;;;3.37;75.99;97813.56;4981160;28;20058;-56
2020/12/28 10:06:58;;;;;;;12.05;6.60;;;;;;;3.45;75.66;97821.63;4975977;28;20058;-53
2020/12/28 10:09:25;;;;;;;12.15;6.50;;;;;;;3.48;75.28;97811.00;4979474;28;20050;-60
2020/12/28 10:11:54;;;;;;;11.20;6.90;;;;;;;3.58;74.66;97802.50;4983097;28;20064;-56
2020/12/28 10:14:21;;;;;;;9.50;6.25;;;;;;;3.65;74.40;97807.13;4980755;28;20141;-54
2020/12/28 10:16:49;;;;;;;12.40;5.75;;;;;;;3.63;74.60;97808.19;4975699;28;20122;-51
2020/12/28 10:19:16;;;;;;;8.90;5.53;;;;;;;3.65;73.93;97816.69;4981619;28;20749;-53
2020/12/28 10:21:43;;;;;;;12.48;5.78;;;;;;;3.71;73.77;97809.25;4975211;28;20668;-57
2020/12/28 10:24:10;;;;;;;12.75;5.85;;;;;;;3.70;73.90;97801.59;4984054;28;20073;-56
2020/12/28 10:26:37;;;;;;;10.63;5.65;;;;;;;3.80;73.32;97799.94;4978113;28;20065;-54
2020/12/28 10:29:05;;;;;;;9.05;5.72;;;;;;;3.71;72.81;97798.84;4965581;28;20112;-52
2020/12/28 10:31:31;;;;;;;9.35;5.57;;;;;;;3.82;73.13;97792.81;4989831;28;20069;-56
2020/12/28 10:33:58;;;;;;;9.20;5.60;;;;;;;3.86;72.72;97783.00;4977750;28;20053;-53
2020/12/28 10:36:25;;;;;;;8.45;5.40;;;;;;;3.81;72.06;97775.56;4975749;28;20251;-52
2020/12/28 10:38:54;;;;;;;8.38;5.07;;;;;;;3.83;71.98;97771.09;4980667;28;20054;-53
2020/12/28 10:41:28;;;;;;;10.00;5.15;;;;;;;3.81;72.73;97776.38;4977762;28;20061;-53
2020/12/28 10:43:55;;;;;;;8.43;5.30;;;;;;;3.88;72.28;97770.72;4979658;28;20441;-54
2020/12/28 10:46:23;;;;;;;11.15;5.90;;;;;;;3.94;71.85;97775.44;4977930;28;20058;-60
2020/12/28 10:48:50;;;;;;;6.63;4.38;;;;;;;3.92;71.94;97772.97;4984711;28;20080;-58
2020/12/28 10:51:16;;;;;;;10.60;5.63;;;;;;;3.94;72.16;97768.47;4982384;28;20141;-54
2020/12/28 10:53:43;;;;;;;8.40;5.20;;;;;;;4.07;71.04;97760.53;4981961;28;20072;-57
2020/12/28 10:56:10;;;;;;;8.18;5.60;;;;;;;4.17;71.78;97766.66;4978183;28;20424;-54
2020/12/28 10:58:37;;;;;;;9.43;5.30;;;;;;;4.28;71.18;97771.06;4983131;28;20621;-58
2020/12/28 11:01:05;;;;;;;7.93;4.82;;;;;;;4.17;70.97;97765.84;4980877;28;20066;-58
2020/12/28 11:03:32;;;;;;;8.65;5.10;;;;;;;4.11;70.97;97784.56;4973062;28;22916;-56
2020/12/28 11:06:02;;;;;;;10.45;5.57;;;;;;;4.19;70.72;97774.38;4976198;28;22206;-51
2020/12/28 11:08:30;;;;;;;8.93;5.32;;;;;;;4.12;70.99;97781.00;4979063;28;20055;-57
2020/12/28 11:10:56;;;;;;;8.73;4.63;;;;;;;4.19;70.95;97779.59;4982264;28;20667;-57
2020/12/28 11:13:23;;;;;;;9.02;5.43;;;;;;;4.28;70.59;97782.31;4969585;28;20184;-54
2020/12/28 11:15:51;;;;;;;7.57;5.15;;;;;;;4.27;70.78;97779.78;4985008;28;20058;-59
2020/12/28 11:18:18;;;;;;;9.52;5.93;;;;;;;4.13;70.98;97770.47;4964274;28;20048;-55
2020/12/28 11:20:44;;;;;;;8.77;4.50;;;;;;;4.01;70.98;97769.66;4985053;28;20054;-53
2020/12/28 11:23:15;;;;;;;6.93;4.80;;;;;;;4.15;71.03;97770.38;4972341;28;20052;-56
2020/12/28 11:25:41;;;;;;;10.57;5.38;;;;;;;4.02;70.66;97770.50;4989043;28;20095;-59
2020/12/28 11:28:08;;;;;;;10.90;5.30;;;;;;;4.04;72.67;97772.00;4978953;28;20052;-52
2020/12/28 11:30:35;;;;;;;9.70;5.43;;;;;;;4.12;71.93;97776.63;4987955;28;20054;-56
2020/12/28 11:33:02;;;;;;;8.77;5.03;;;;;;;4.12;70.69;97784.44;4974627;28;20058;-57
2020/12/28 11:35:29;;;;;;;8.32;4.72;;;;;;;4.10;70.73;97780.28;4986175;28;20058;-58
2020/12/28 11:37:56;;;;;;;7.38;4.63;;;;;;;4.14;70.96;97772.13;4979516;28;20372;-54
2020/12/28 11:40:23;;;;;;;6.55;4.68;;;;;;;4.17;70.93;97776.25;4988978;28;20056;-51
2020/12/28 11:42:50;;;;;;;7.55;5.03;;;;;;;4.20;70.88;97773.44;4976039;28;20494;-54
2020/12/28 11:45:17;;;;;;;10.77;5.22;;;;;;;4.31;70.79;97774.22;4984762;28;21234;-56